Time;durP1;ratioP1;P1;durP2;ratioP2;P2;SDS_P1;SDS_P2;PMS_P1;PMS_P2;Temp;Humidity;BMP_temperature;BMP_pressure;BME280_temperature;BME280_humidity;BME280_pressure;Samples;Min_cycle;Max_cycle;Signal;HPM_P1;HPM_P2
2021/05/20 00:00:02;;;;;;;0.75;0.43;;;22.10;44.90;;;;;;5053403;28;20029;-39
2021/05/20 00:02:28;;;;;;;0.57;0.40;;;22.10;44.90;;;;;;5052474;28;20440;-35
2021/05/20 00:04:54;;;;;;;2.03;0.80;;;22.10;45.00;;;;;;5053091;28;20029;-35
2021/05/20 00:07:20;;;;;;;2.22;0.40;;;22.10;45.00;;;;;;5056450;28;20032;-34
2021/05/20 00:09:45;;;;;;;1.35;0.35;;;22.10;45.00;;;;;;5052785;28;20050;-35
2021/05/20 00:12:12;;;;;;;1.05;0.40;;;22.10;44.90;;;;;;5051517;28;20032;-34
2021/05/20 00:14:38;;;;;;;0.60;0.30;;;22.10;44.90;;;;;;5052864;28;20480;-34
2021/05/20 00:17:04;;;;;;;1.10;0.40;;;22.10;44.90;;;;;;5034488;28;20033;-44
2021/05/20 00:19:30;;;;;;;0.90;0.45;;;22.10;45.00;;;;;;5052388;28;20462;-34
2021/05/20 00:21:55;;;;;;;1.67;0.40;;;22.10;44.90;;;;;;5052195;28;20095;-34
2021/05/20 00:24:21;;;;;;;0.82;0.50;;;22.10;45.00;;;;;;5050453;28;20378;-38
2021/05/20 00:26:47;;;;;;;1.80;0.50;;;22.10;45.00;;;;;;5052597;28;20033;-34
2021/05/20 00:29:12;;;;;;;1.00;0.50;;;22.10;45.00;;;;;;5051756;28;20074;-34
2021/05/20 00:31:38;;;;;;;1.05;0.40;;;22.10;45.00;;;;;;5052019;28;20025;-34
2021/05/20 00:34:05;;;;;;;1.52;0.40;;;22.10;45.00;;;;;;5052270;28;20545;-41
2021/05/20 00:36:31;;;;;;;1.83;0.55;;;22.10;45.00;;;;;;5051978;28;20047;-34
2021/05/20 00:38:57;;;;;;;0.80;0.40;;;22.10;45.00;;;;;;5052422;28;20025;-34
2021/05/20 00:41:23;;;;;;;1.90;0.32;;;22.10;45.00;;;;;;5047980;28;20033;-34
2021/05/20 00:43:49;;;;;;;1.75;0.85;;;22.10;45.00;;;;;;5052244;28;20499;-34
2021/05/20 00:46:14;;;;;;;1.67;0.40;;;22.10;45.00;;;;;;5051477;28;20068;-34
2021/05/20 00:48:40;;;;;;;2.15;0.65;;;22.10;45.00;;;;;;5051747;28;20055;-34
2021/05/20 00:51:06;;;;;;;0.93;0.75;;;22.10;45.00;;;;;;5051942;28;20106;-42
2021/05/20 00:53:32;;;;;;;0.47;0.35;;;22.10;45.00;;;;;;5051479;28;20093;-34
2021/05/20 00:55:58;;;;;;;0.68;0.40;;;22.10;45.00;;;;;;5052142;28;20025;-34
2021/05/20 00:58:24;;;;;;;2.65;0.47;;;22.10;45.10;;;;;;5051415;28;20801;-35
2021/05/20 01:00:54;;;;;;;1.23;0.60;;;22.10;45.10;;;;;;5052029;28;20025;-34
2021/05/20 01:03:19;;;;;;;1.10;0.70;;;22.10;45.00;;;;;;5051051;28;20047;-34
2021/05/20 01:05:45;;;;;;;1.67;0.60;;;22.10;45.00;;;;;;5051698;28;20021;-34
2021/05/20 01:08:10;;;;;;;1.00;0.30;;;22.10;45.00;;;;;;5050762;28;20055;-34
2021/05/20 01:10:36;;;;;;;1.23;0.40;;;22.10;45.00;;;;;;5051682;28;20033;-34
2021/05/20 01:13:02;;;;;;;0.82;0.30;;;22.10;45.10;;;;;;5051559;28;20041;-34
2021/05/20 01:15:29;;;;;;;1.90;0.43;;;22.10;45.00;;;;;;5050743;28;20021;-34
2021/05/20 01:17:57;;;;;;;0.63;0.30;;;22.10;45.10;;;;;;5051717;28;20552;-34
2021/05/20 01:20:38;;;;;;;0.30;0.30;;;22.10;45.00;;;;;;5050663;28;20028;-34
2021/05/20 01:23:13;;;;;;;0.68;0.40;;;22.10;45.10;;;;;;5051247;28;20037;-34
2021/05/20 01:25:41;;;;;;;1.25;0.40;;;22.10;45.10;;;;;;5051307;28;20477;-34
2021/05/20 01:28:18;;;;;;;0.38;0.30;;;22.10;45.10;;;;;;5051246;28;20039;-42
2021/05/20 01:30:46;;;;;;;0.60;0.50;;;22.10;45.10;;;;;;5051945;28;20033;-34
2021/05/20 01:33:12;;;;;;;0.43;0.30;;;22.10;45.10;;;;;;5050193;28;20045;-34
2021/05/20 01:35:39;;;;;;;1.25;0.40;;;22.10;45.10;;;;;;5048503;28;20078;-34
2021/05/20 01:40:55;;;;;;;0.60;0.60;;;22.10;45.00;;;;;;5051675;28;20434;-34
2021/05/20 01:43:21;;;;;;;1.00;0.40;;;22.10;45.00;;;;;;5042467;28;20040;-34
2021/05/20 01:45:51;;;;;;;0.75;0.40;;;22.10;45.10;;;;;;5051207;28;20075;-34
2021/05/20 01:48:17;;;;;;;0.68;0.40;;;22.10;45.10;;;;;;5050547;28;20082;-34
2021/05/20 01:50:43;;;;;;;0.63;0.38;;;22.10;45.10;;;;;;5051133;28;20417;-34
2021/05/20 01:53:09;;;;;;;0.77;0.43;;;22.10;45.10;;;;;;5050414;28;20033;-41
2021/05/20 01:55:34;;;;;;;0.43;0.38;;;22.10;45.10;;;;;;5050683;28;20528;-34
2021/05/20 01:58:00;;;;;;;0.65;0.65;;;22.10;45.20;;;;;;5050540;28;20053;-34
2021/05/20 02:00:26;;;;;;;1.67;0.50;;;22.10;45.20;;;;;;5049978;28;20025;-34
2021/05/20 02:02:51;;;;;;;0.50;0.38;;;22.10;45.20;;;;;;5051410;28;20070;-34
2021/05/20 02:05:17;;;;;;;0.40;0.30;;;22.10;45.20;;;;;;5049568;28;20052;-33
2021/05/20 02:07:42;;;;;;;0.88;0.30;;;22.10;45.20;;;;;;5053054;28;20029;-34
2021/05/20 02:10:09;;;;;;;0.75;0.40;;;22.10;45.20;;;;;;5050502;28;20040;-41
2021/05/20 02:12:34;;;;;;;1.27;0.70;;;22.00;45.20;;;;;;5049702;28;20477;-34
2021/05/20 02:15:00;;;;;;;0.55;0.30;;;22.10;45.20;;;;;;5050968;28;20108;-34
2021/05/20 02:17:25;;;;;;;0.95;0.30;;;22.10;45.20;;;;;;5049945;28;20078;-34
2021/05/20 02:19:51;;;;;;;1.08;0.40;;;22.10;45.30;;;;;;5051090;28;20021;-34
2021/05/20 02:22:17;;;;;;;1.40;0.60;;;22.10;45.20;;;;;;5049371;28;20041;-34
2021/05/20 02:24:42;;;;;;;0.40;0.40;;;22.10;45.30;;;;;;5050947;28;20029;-34
2021/05/20 02:27:08;;;;;;;0.50;0.40;;;22.10;45.20;;;;;;5050267;28;20028;-42
2021/05/20 02:29:34;;;;;;;0.50;0.40;;;22.10;45.20;;;;;;5045618;28;20036;-34
2021/05/20 02:31:59;;;;;;;0.90;0.40;;;22.10;45.20;;;;;;5050902;28;20036;-37
2021/05/20 02:34:25;;;;;;;1.40;0.35;;;22.10;45.30;;;;;;5049764;28;20025;-34
2021/05/20 02:36:51;;;;;;;0.68;0.40;;;22.10;45.30;;;;;;5050689;28;20385;-34
2021/05/20 02:39:17;;;;;;;0.73;0.65;;;22.10;45.30;;;;;;5049931;28;20082;-36
2021/05/20 02:41:44;;;;;;;0.43;0.30;;;22.10;45.30;;;;;;5050912;28;20094;-34
2021/05/20 02:44:10;;;;;;;1.55;0.63;;;22.10;45.30;;;;;;5049427;28;20386;-42
2021/05/20 02:46:37;;;;;;;1.45;0.50;;;22.10;45.30;;;;;;5050369;28;20040;-34
2021/05/20 02:49:03;;;;;;;0.40;0.30;;;22.10;45.30;;;;;;5050717;28;20146;-34
2021/05/20 02:51:29;;;;;;;1.50;0.70;;;22.10;45.30;;;;;;5048988;28;20110;-35
2021/05/20 02:53:54;;;;;;;0.70;0.65;;;22.10;45.30;;;;;;5032487;28;20092;-34
2021/05/20 02:56:20;;;;;;;0.47;0.40;;;22.10;45.30;;;;;;5049571;28;20395;-34
2021/05/20 02:58:45;;;;;;;0.52;0.40;;;22.10;45.30;;;;;;5050122;28;20039;-33
2021/05/20 03:01:12;;;;;;;0.88;0.40;;;22.10;45.40;;;;;;5049809;28;20025;-41
2021/05/20 03:03:37;;;;;;;0.80;0.40;;;22.10;45.40;;;;;;5052990;28;20065;-34
2021/05/20 03:06:03;;;;;;;1.55;0.40;;;22.10;45.30;;;;;;5056411;28;20125;-34
2021/05/20 03:08:29;;;;;;;0.63;0.20;;;22.10;45.30;;;;;;5057939;28;20610;-34
2021/05/20 03:10:56;;;;;;;0.30;0.30;;;22.10;45.40;;;;;;5053960;28;20115;-34
2021/05/20 03:13:22;;;;;;;0.50;0.40;;;22.00;45.30;;;;;;5053434;28;20033;-34
2021/05/20 03:15:47;;;;;;;0.68;0.30;;;22.10;45.40;;;;;;5053271;28;20025;-34
2021/05/20 03:18:13;;;;;;;0.50;0.40;;;22.10;45.40;;;;;;5053489;28;20025;-44
2021/05/20 03:20:38;;;;;;;0.40;0.22;;;22.10;45.40;;;;;;5053321;28;20470;-34
2021/05/20 03:23:04;;;;;;;0.30;0.30;;;22.10;45.40;;;;;;5050227;28;20065;-34
2021/05/20 03:25:30;;;;;;;1.88;0.40;;;22.00;45.30;;;;;;5052440;28;20032;-34
2021/05/20 03:27:55;;;;;;;1.42;0.50;;;22.00;45.30;;;;;;5053361;28;20044;-34
2021/05/20 03:30:22;;;;;;;0.65;0.30;;;22.00;45.30;;;;;;5046080;28;20029;-36
2021/05/20 03:32:47;;;;;;;0.45;0.30;;;22.10;45.40;;;;;;5053532;28;20472;-34
2021/05/20 03:35:13;;;;;;;1.05;0.40;;;22.00;45.30;;;;;;5052549;28;20095;-44
2021/05/20 03:37:39;;;;;;;1.17;0.40;;;22.10;45.40;;;;;;5053426;28;20021;-34
2021/05/20 03:40:06;;;;;;;1.30;0.55;;;22.00;45.40;;;;;;5053364;28;20021;-34
2021/05/20 03:42:31;;;;;;;0.63;0.30;;;22.00;45.40;;;;;;5052766;28;20040;-34
2021/05/20 03:44:57;;;;;;;0.80;0.35;;;22.00;45.40;;;;;;5052956;28;20025;-34
2021/05/20 03:47:23;;;;;;;0.47;0.30;;;22.10;45.50;;;;;;5053244;28;20485;-34
2021/05/20 03:49:48;;;;;;;0.77;0.40;;;22.10;45.40;;;;;;5053403;28;20036;-34
2021/05/20 03:52:14;;;;;;;0.75;0.40;;;22.00;45.40;;;;;;5051458;28;20493;-39
2021/05/20 03:54:42;;;;;;;0.40;0.30;;;22.10;45.50;;;;;;5053183;28;20021;-34
2021/05/20 03:57:08;;;;;;;3.95;0.43;;;22.00;45.40;;;;;;5053130;28;20041;-33
2021/05/20 03:59:35;;;;;;;0.75;0.35;;;22.00;45.50;;;;;;5052339;28;20041;-34
2021/05/20 04:02:00;;;;;;;0.32;0.30;;;22.00;45.40;;;;;;5052852;28;20458;-34
2021/05/20 04:04:26;;;;;;;0.85;0.40;;;22.10;45.50;;;;;;5052308;28;20036;-34
2021/05/20 04:06:52;;;;;;;0.50;0.30;;;22.00;45.40;;;;;;5054061;28;20021;-34
2021/05/20 04:09:17;;;;;;;1.35;0.70;;;22.10;45.50;;;;;;5052136;28;20052;-38
2021/05/20 04:11:43;;;;;;;0.55;0.30;;;22.00;45.50;;;;;;5052832;28;20375;-34
2021/05/20 04:14:09;;;;;;;0.57;0.40;;;22.00;45.50;;;;;;5052051;28;20033;-34
2021/05/20 04:16:34;;;;;;;1.05;0.40;;;22.00;45.50;;;;;;5049696;28;20048;-34
2021/05/20 04:19:02;;;;;;;0.80;0.60;;;22.00;45.50;;;;;;5050504;28;20111;-34
2021/05/20 04:21:28;;;;;;;0.65;0.40;;;22.00;45.50;;;;;;5051592;28;20029;-34
2021/05/20 04:23:53;;;;;;;1.75;0.30;;;22.00;45.50;;;;;;5052419;28;20044;-34
2021/05/20 04:26:19;;;;;;;0.40;0.30;;;22.00;45.60;;;;;;5051109;28;20029;-36
2021/05/20 04:28:49;;;;;;;0.50;0.30;;;22.00;45.60;;;;;;5052810;28;20458;-34
2021/05/20 04:31:15;;;;;;;0.65;0.30;;;22.00;45.80;;;;;;5051525;28;20516;-41
2021/05/20 04:33:41;;;;;;;0.35;0.28;;;22.00;45.60;;;;;;5052767;28;20033;-34
2021/05/20 04:36:07;;;;;;;0.68;0.30;;;22.00;45.60;;;;;;5052136;28;20031;-34
2021/05/20 04:38:33;;;;;;;0.90;0.35;;;22.00;45.60;;;;;;5051578;28;20020;-34
2021/05/20 04:40:58;;;;;;;0.95;0.50;;;22.10;45.70;;;;;;5052370;28;20075;-34
2021/05/20 04:43:24;;;;;;;0.30;0.30;;;22.00;45.60;;;;;;5051481;28;20033;-34
2021/05/20 04:45:50;;;;;;;2.25;0.93;;;22.00;45.60;;;;;;5051966;28;20374;-34
2021/05/20 04:48:16;;;;;;;0.77;0.40;;;22.00;45.60;;;;;;5051238;28;20034;-42
2021/05/20 04:50:41;;;;;;;0.55;0.30;;;22.00;45.60;;;;;;5051803;28;20036;-34
2021/05/20 04:53:10;;;;;;;0.68;0.50;;;22.00;45.60;;;;;;5052066;28;20517;-34
2021/05/20 04:55:36;;;;;;;0.35;0.35;;;22.00;45.60;;;;;;5051004;28;20029;-34
2021/05/20 04:58:02;;;;;;;1.23;0.40;;;22.10;45.60;;;;;;5051409;28;20057;-34
2021/05/20 05:00:28;;;;;;;0.30;0.28;;;22.10;45.60;;;;;;5051426;28;20355;-34
2021/05/20 05:02:54;;;;;;;0.40;0.30;;;22.10;45.60;;;;;;5051378;28;20128;-35
2021/05/20 05:05:20;;;;;;;0.50;0.30;;;22.00;45.60;;;;;;5050811;28;20470;-34
2021/05/20 05:07:46;;;;;;;0.95;0.38;;;22.00;45.60;;;;;;5059617;28;20493;-34
2021/05/20 05:10:12;;;;;;;0.50;0.32;;;22.10;45.60;;;;;;5050695;28;20370;-41
2021/05/20 05:12:38;;;;;;;0.55;0.35;;;22.10;45.60;;;;;;5049175;28;20037;-34
2021/05/20 05:15:05;;;;;;;0.63;0.40;;;22.10;45.70;;;;;;5050498;28;20024;-39
2021/05/20 05:17:31;;;;;;;0.30;0.30;;;22.10;45.60;;;;;;5050424;28;20482;-35
2021/05/20 05:19:56;;;;;;;1.15;0.40;;;22.10;45.60;;;;;;5050912;28;20040;-41
2021/05/20 05:22:22;;;;;;;0.65;0.32;;;22.00;45.70;;;;;;5050898;28;20032;-34
2021/05/20 05:24:48;;;;;;;1.00;0.40;;;22.00;45.60;;;;;;5051402;28;20029;-36
2021/05/20 05:27:15;;;;;;;0.45;0.43;;;22.10;45.70;;;;;;5045938;28;20044;-43
2021/05/20 05:29:41;;;;;;;0.43;0.40;;;22.00;45.70;;;;;;5050902;28;20533;-34
2021/05/20 05:32:07;;;;;;;0.28;0.22;;;22.00;45.60;;;;;;5051427;28;20128;-34
2021/05/20 05:34:33;;;;;;;0.57;0.40;;;22.10;45.70;;;;;;5050788;28;20033;-34
2021/05/20 05:37:01;;;;;;;0.55;0.30;;;22.10;45.70;;;;;;5051069;28;20025;-35
2021/05/20 05:39:27;;;;;;;0.20;0.20;;;22.10;45.70;;;;;;5050907;28;20024;-34
2021/05/20 05:41:55;;;;;;;0.63;0.20;;;22.10;45.70;;;;;;5050747;28;20036;-34
2021/05/20 05:44:21;;;;;;;0.30;0.30;;;22.10;45.80;;;;;;5050231;28;20378;-34
2021/05/20 05:46:46;;;;;;;0.75;0.35;;;22.10;45.70;;;;;;5050680;28;20039;-34
2021/05/20 05:49:15;;;;;;;1.15;0.32;;;22.10;45.80;;;;;;5051130;28;20033;-34
2021/05/20 05:51:45;;;;;;;1.20;0.43;;;22.00;45.90;;;;;;5050861;28;20099;-34
2021/05/20 05:54:14;;;;;;;1.23;0.45;;;22.10;45.90;;;;;;5033188;28;20033;-34
2021/05/20 05:56:39;;;;;;;0.57;0.40;;;22.00;46.00;;;;;;5041902;28;20478;-34
2021/05/20 05:59:05;;;;;;;0.73;0.30;;;22.00;45.90;;;;;;5051091;28;20079;-34
2021/05/20 06:01:34;;;;;;;1.77;0.32;;;22.10;46.00;;;;;;5050219;28;20033;-34
2021/05/20 06:04:00;;;;;;;1.90;0.35;;;22.00;46.20;;;;;;5050926;28;20033;-33
2021/05/20 06:06:26;;;;;;;1.17;0.43;;;22.00;45.10;;;;;;5053032;28;20031;-34
2021/05/20 06:08:52;;;;;;;1.88;0.50;;;22.00;44.50;;;;;;5051803;28;20378;-34
2021/05/20 06:11:18;;;;;;;2.10;0.55;;;22.00;44.60;;;;;;5050418;28;20032;-47
2021/05/20 06:13:43;;;;;;;1.73;0.60;;;21.90;43.60;;;;;;5050473;28;20037;-34
2021/05/20 06:16:09;;;;;;;3.78;0.57;;;21.90;44.10;;;;;;5050569;28;20025;-33
2021/05/20 06:18:37;;;;;;;0.43;0.40;;;21.80;43.40;;;;;;5049022;28;20037;-33
2021/05/20 06:21:03;;;;;;;2.28;0.70;;;20.80;42.60;;;;;;5050871;28;20032;-33
2021/05/20 06:23:29;;;;;;;2.45;0.50;;;19.20;45.60;;;;;;5049661;28;20385;-34
2021/05/20 06:25:54;;;;;;;2.97;0.50;;;19.00;46.80;;;;;;5050527;28;20041;-36
2021/05/20 06:28:20;;;;;;;0.80;0.50;;;19.00;46.50;;;;;;5051007;28;20029;-34
2021/05/20 06:30:46;;;;;;;1.30;0.50;;;18.80;47.10;;;;;;5051067;28;20049;-34
2021/05/20 06:33:11;;;;;;;1.83;0.40;;;17.50;48.70;;;;;;5050782;28;20032;-33
2021/05/20 06:35:37;;;;;;;1.42;0.60;;;17.80;49.20;;;;;;5049886;28;20040;-33
2021/05/20 06:38:03;;;;;;;6.47;0.50;;;18.40;48.30;;;;;;5052353;28;20032;-34
2021/05/20 06:40:28;;;;;;;1.83;0.43;;;18.40;47.10;;;;;;5053708;28;20025;-33
2021/05/20 06:42:54;;;;;;;0.52;0.45;;;17.60;48.90;;;;;;5054096;28;20055;-36
2021/05/20 06:45:23;;;;;;;1.60;0.50;;;17.30;50.50;;;;;;5053641;28;20033;-42
2021/05/20 06:47:53;;;;;;;0.60;0.40;;;17.60;50.10;;;;;;5054425;28;20029;-34
2021/05/20 06:50:18;;;;;;;1.15;0.50;;;18.30;48.20;;;;;;5053706;28;20029;-42
2021/05/20 06:52:44;;;;;;;1.10;0.50;;;18.10;47.90;;;;;;5054128;28;20045;-33
2021/05/20 06:55:10;;;;;;;0.70;0.40;;;18.40;48.80;;;;;;5053900;28;20033;-35
2021/05/20 07:00:20;;;;;;;0.90;0.50;;;19.00;47.10;;;;;;5046925;28;20091;-41
2021/05/20 07:02:46;;;;;;;1.30;0.50;;;18.90;47.30;;;;;;5053602;28;20048;-35
2021/05/20 07:05:13;;;;;;;1.52;0.60;;;18.50;47.50;;;;;;5053740;28;20048;-34
2021/05/20 07:07:39;;;;;;;0.75;0.38;;;18.30;47.00;;;;;;5056453;28;20091;-34
2021/05/20 07:10:06;;;;;;;1.45;0.40;;;17.90;48.50;;;;;;5053914;28;20025;-35
2021/05/20 07:12:32;;;;;;;1.50;0.50;;;18.50;47.80;;;;;;5053095;28;20029;-35
2021/05/20 07:15:00;;;;;;;1.55;0.60;;;18.40;47.60;;;;;;5052362;28;20029;-34
2021/05/20 07:17:26;;;;;;;1.20;0.60;;;18.60;47.30;;;;;;5053443;28;20074;-35
2021/05/20 07:19:52;;;;;;;1.80;0.47;;;18.60;47.70;;;;;;5053802;28;20108;-35
2021/05/20 07:22:17;;;;;;;6.82;0.70;;;18.90;47.00;;;;;;5053616;28;20057;-43
2021/05/20 07:24:44;;;;;;;3.33;0.52;;;18.60;47.10;;;;;;5052804;28;20041;-35
2021/05/20 07:27:10;;;;;;;1.25;0.40;;;18.80;47.70;;;;;;5053625;28;20108;-36
2021/05/20 07:29:36;;;;;;;5.38;0.75;;;19.40;47.00;;;;;;5052354;28;20124;-35
2021/05/20 07:32:02;;;;;;;0.75;0.50;;;19.80;46.70;;;;;;5053800;28;20029;-35
2021/05/20 07:34:27;;;;;;;1.80;0.52;;;20.10;45.90;;;;;;5053179;28;20036;-35
2021/05/20 07:36:53;;;;;;;1.70;0.55;;;20.20;46.00;;;;;;5053027;28;20075;-35
2021/05/20 07:39:19;;;;;;;2.45;0.32;;;20.30;45.80;;;;;;5053390;28;20028;-43
2021/05/20 07:41:45;;;;;;;1.65;0.40;;;20.30;45.00;;;;;;5052785;28;20398;-36
2021/05/20 07:44:11;;;;;;;1.00;0.40;;;20.40;44.90;;;;;;5053502;28;20029;-34
2021/05/20 07:46:36;;;;;;;1.23;0.40;;;20.50;44.90;;;;;;5052926;28;20523;-34
2021/05/20 07:49:02;;;;;;;0.55;0.40;;;20.50;44.20;;;;;;5052604;28;20029;-34
2021/05/20 07:51:28;;;;;;;1.05;0.63;;;20.60;44.40;;;;;;5051695;28;20036;-34
2021/05/20 07:53:54;;;;;;;0.65;0.55;;;20.60;44.60;;;;;;5048640;28;20119;-36
2021/05/20 07:56:19;;;;;;;1.30;0.52;;;20.80;44.70;;;;;;5052235;28;20025;-43
2021/05/20 07:58:46;;;;;;;1.25;0.40;;;20.80;44.70;;;;;;5052651;28;20037;-34
2021/05/20 08:01:13;;;;;;;1.55;0.30;;;20.90;44.60;;;;;;5052739;28;20029;-38
2021/05/20 08:06:14;;;;;;;4.15;0.50;;;21.10;44.40;;;;;;5054616;28;20035;-34
2021/05/20 08:11:21;;;;;;;0.40;0.40;;;21.10;44.20;;;;;;5052230;28;20405;-44
2021/05/20 08:13:47;;;;;;;0.30;0.30;;;21.10;44.20;;;;;;5052210;28;20097;-34
2021/05/20 08:16:12;;;;;;;4.20;2.15;;;21.20;44.00;;;;;;5034946;28;20056;-34
2021/05/20 08:18:38;;;;;;;4.50;2.45;;;21.20;44.10;;;;;;5052032;28;20033;-34
2021/05/20 08:21:05;;;;;;;3.45;1.95;;;21.20;44.20;;;;;;5052654;28;20028;-34
2021/05/20 08:23:32;;;;;;;2.60;1.45;;;21.30;43.60;;;;;;5051269;28;20378;-34
2021/05/20 08:25:59;;;;;;;4.07;1.52;;;21.40;43.80;;;;;;5052205;28;20405;-34
2021/05/20 08:28:25;;;;;;;2.75;1.02;;;21.40;43.60;;;;;;5052137;28;20028;-34
2021/05/20 08:30:50;;;;;;;3.88;1.20;;;21.50;43.50;;;;;;5051820;28;20104;-34
2021/05/20 08:33:16;;;;;;;3.35;1.30;;;21.40;43.70;;;;;;5052977;28;20041;-34
2021/05/20 08:35:42;;;;;;;3.75;1.20;;;21.40;44.30;;;;;;5051510;28;20025;-37
2021/05/20 08:38:07;;;;;;;2.63;1.30;;;21.50;43.80;;;;;;5052138;28;20064;-34
2021/05/20 08:40:33;;;;;;;2.10;1.08;;;21.50;44.00;;;;;;5051371;28;20191;-34
2021/05/20 08:42:59;;;;;;;7.55;1.00;;;21.50;43.80;;;;;;5052463;28;20033;-34
2021/05/20 08:45:30;;;;;;;1.65;1.00;;;21.50;44.00;;;;;;5051196;28;20040;-35
2021/05/20 08:47:57;;;;;;;1.90;1.17;;;21.60;44.00;;;;;;5047361;28;20030;-34
2021/05/20 08:50:27;;;;;;;2.80;1.20;;;21.60;44.20;;;;;;5051621;28;20424;-37
2021/05/20 08:52:53;;;;;;;4.63;1.13;;;21.60;44.30;;;;;;5049158;28;20033;-34
2021/05/20 08:55:22;;;;;;;3.63;1.10;;;21.70;44.30;;;;;;5051628;28;20040;-34
2021/05/20 08:57:48;;;;;;;2.20;0.77;;;21.70;44.30;;;;;;5051841;28;20482;-34
2021/05/20 09:00:19;;;;;;;2.50;1.23;;;21.70;44.30;;;;;;5050856;28;20035;-34
2021/05/20 09:02:45;;;;;;;2.08;0.90;;;21.70;44.40;;;;;;5050908;28;20037;-34
2021/05/20 09:05:11;;;;;;;1.30;0.90;;;21.70;44.40;;;;;;5051535;28;20086;-34
2021/05/20 09:07:41;;;;;;;2.67;0.90;;;21.70;44.80;;;;;;5051993;28;20513;-34
2021/05/20 09:10:19;;;;;;;1.40;0.60;;;21.70;44.80;;;;;;5051853;28;20108;-35
2021/05/20 09:12:47;;;;;;;1.63;0.65;;;21.70;44.50;;;;;;5050929;28;20361;-35
2021/05/20 09:15:14;;;;;;;1.02;0.50;;;21.70;44.50;;;;;;5057325;28;20074;-34
2021/05/20 09:17:40;;;;;;;3.13;0.68;;;21.80;44.00;;;;;;5060126;28;20477;-34
2021/05/20 09:20:06;;;;;;;1.55;0.90;;;21.80;44.20;;;;;;5056623;28;20062;-35
2021/05/20 09:22:31;;;;;;;1.23;0.60;;;21.80;44.00;;;;;;5056853;28;20036;-35
2021/05/20 09:25:01;;;;;;;1.17;0.70;;;21.90;43.80;;;;;;5058943;28;20378;-34
2021/05/20 09:27:41;;;;;;;1.00;0.63;;;21.90;43.90;;;;;;5051471;28;20089;-35
2021/05/20 09:30:18;;;;;;;2.08;0.85;;;21.80;44.20;;;;;;5051009;28;20110;-34
2021/05/20 09:32:47;;;;;;;1.30;0.68;;;21.90;43.80;;;;;;5033160;28;20674;-35
2021/05/20 09:35:14;;;;;;;1.90;0.75;;;21.90;43.60;;;;;;5051478;28;20025;-34
2021/05/20 09:37:51;;;;;;;1.42;0.63;;;21.90;43.50;;;;;;5057926;28;20060;-35
2021/05/20 09:40:20;;;;;;;2.30;0.60;;;21.90;43.70;;;;;;5051181;28;20373;-35
2021/05/20 09:42:47;;;;;;;1.30;0.70;;;21.80;43.70;;;;;;5046991;28;20148;-34
2021/05/20 09:45:17;;;;;;;2.72;0.80;;;21.70;43.90;;;;;;5051163;28;20535;-35
2021/05/20 09:47:43;;;;;;;3.97;0.73;;;21.70;44.20;;;;;;5050042;28;20690;-35
2021/05/20 09:50:22;;;;;;;1.42;0.80;;;21.80;44.10;;;;;;5053150;28;20037;-35
2021/05/20 09:52:49;;;;;;;3.75;0.73;;;21.60;44.30;;;;;;5051108;28;20033;-34
2021/05/20 09:55:25;;;;;;;1.88;0.50;;;21.70;44.20;;;;;;5051215;28;20025;-35
2021/05/20 09:57:51;;;;;;;2.45;0.77;;;21.60;44.30;;;;;;5043236;28;20048;-35
2021/05/20 10:00:25;;;;;;;1.33;0.65;;;21.60;44.40;;;;;;5032989;28;20436;-38
2021/05/20 10:03:09;;;;;;;1.35;0.60;;;21.60;44.40;;;;;;5043401;28;20074;-35
2021/05/20 10:05:37;;;;;;;2.17;0.52;;;21.60;44.50;;;;;;5050302;28;20116;-37
2021/05/20 10:08:06;;;;;;;2.88;0.82;;;21.60;44.70;;;;;;5056839;28;20039;-35
2021/05/20 10:10:35;;;;;;;3.53;0.90;;;21.50;44.80;;;;;;5049604;28;20047;-35
2021/05/20 10:13:06;;;;;;;1.90;0.68;;;21.50;44.90;;;;;;5054229;28;20119;-35
2021/05/20 10:15:32;;;;;;;3.17;1.52;;;21.60;44.70;;;;;;5054414;28;20060;-35
2021/05/20 10:18:03;;;;;;;1.13;0.70;;;21.60;44.50;;;;;;5055472;28;20394;-34
2021/05/20 10:20:29;;;;;;;1.95;0.85;;;21.60;44.60;;;;;;5052294;28;20029;-35
2021/05/20 10:22:56;;;;;;;2.50;0.70;;;21.60;44.80;;;;;;5054660;28;20035;-34
2021/05/20 10:25:22;;;;;;;5.15;0.80;;;21.60;45.00;;;;;;5054730;28;20140;-35
2021/05/20 10:27:48;;;;;;;4.65;1.00;;;21.60;45.00;;;;;;5056431;28;20096;-35
2021/05/20 10:30:16;;;;;;;4.63;0.80;;;21.60;45.20;;;;;;5054355;28;20048;-34
2021/05/20 10:32:44;;;;;;;4.88;1.33;;;21.60;45.50;;;;;;5053555;28;20060;-34
2021/05/20 10:35:16;;;;;;;2.30;0.70;;;21.60;45.90;;;;;;5054215;28;20035;-42
2021/05/20 10:37:43;;;;;;;1.30;0.30;;;21.60;45.70;;;;;;5051270;28;20032;-34
2021/05/20 10:40:10;;;;;;;2.05;0.50;;;21.40;42.80;;;;;;5054867;28;20033;-35
2021/05/20 10:42:42;;;;;;;2.15;0.40;;;21.20;40.40;;;;;;5053572;28;20029;-34
2021/05/20 10:45:19;;;;;;;0.80;0.30;;;20.80;39.90;;;;;;5054849;28;20029;-34
2021/05/20 10:48:03;;;;;;;3.20;0.88;;;20.60;40.40;;;;;;5053315;28;20613;-34
2021/05/20 10:50:55;;;;;;;2.55;0.50;;;20.90;42.30;;;;;;5052646;28;20040;-40
2021/05/20 10:53:40;;;;;;;1.30;0.40;;;21.10;43.40;;;;;;5050177;28;20074;-34
2021/05/20 10:56:07;;;;;;;2.35;0.52;;;21.30;43.40;;;;;;5054342;28;20423;-34
2021/05/20 10:58:36;;;;;;;0.75;0.30;;;21.30;42.20;;;;;;5053615;28;20041;-34
2021/05/20 11:01:03;;;;;;;1.48;0.30;;;20.90;38.60;;;;;;5054173;28;20029;-34
2021/05/20 11:03:49;;;;;;;2.17;0.77;;;20.50;39.50;;;;;;5053477;28;20029;-43
2021/05/20 11:06:17;;;;;;;1.92;0.50;;;20.20;40.60;;;;;;5058425;28;20097;-35
2021/05/20 11:08:42;;;;;;;0.90;0.40;;;20.40;41.80;;;;;;5053777;28;20040;-35
2021/05/20 11:11:23;;;;;;;0.70;0.40;;;20.70;42.00;;;;;;5054126;28;20355;-35
2021/05/20 11:13:48;;;;;;;1.33;0.40;;;20.90;39.80;;;;;;5053190;28;20033;-35
2021/05/20 11:16:35;;;;;;;2.05;0.70;;;20.80;40.30;;;;;;5053629;28;20047;-35
2021/05/20 11:19:19;;;;;;;0.90;0.40;;;20.90;41.70;;;;;;5053805;28;20040;-34
2021/05/20 11:22:04;;;;;;;4.13;1.25;;;21.00;42.00;;;;;;5053094;28;20025;-34
2021/05/20 11:24:33;;;;;;;0.93;0.50;;;21.00;41.20;;;;;;5049053;28;20037;-35
2021/05/20 11:27:02;;;;;;;2.80;0.55;;;21.10;41.10;;;;;;5053755;28;20029;-35
2021/05/20 11:29:29;;;;;;;2.00;0.40;;;21.20;41.30;;;;;;5051373;28;20036;-37
2021/05/20 11:32:10;;;;;;;2.38;0.50;;;21.20;41.80;;;;;;5050499;28;20079;-35
2021/05/20 11:37:01;;;;;;;0.43;0.40;;;21.20;41.10;;;;;;5053547;28;20021;-45
2021/05/20 11:39:28;;;;;;;0.68;0.40;;;21.20;40.90;;;;;;5053390;28;20029;-45
2021/05/20 11:41:54;;;;;;;0.50;0.20;;;21.20;40.50;;;;;;5052639;28;20040;-35
2021/05/20 11:44:22;;;;;;;0.75;0.60;;;21.20;40.60;;;;;;5035510;28;20036;-35
2021/05/20 11:47:11;;;;;;;2.42;0.50;;;21.20;41.40;;;;;;5052704;28;20116;-36
2021/05/20 11:49:38;;;;;;;4.93;0.70;;;21.30;42.50;;;;;;5053156;28;20035;-34
2021/05/20 11:52:11;;;;;;;3.08;0.55;;;21.80;42.50;;;;;;5053127;28;20044;-34
2021/05/20 11:54:36;;;;;;;2.65;0.80;;;22.30;41.70;;;;;;5052722;28;20056;-34
2021/05/20 11:57:05;;;;;;;4.55;0.50;;;22.20;41.80;;;;;;5044834;28;20068;-35
2021/05/20 11:59:37;;;;;;;4.20;0.80;;;22.00;42.10;;;;;;5052609;28;20037;-34
2021/05/20 12:02:04;;;;;;;5.57;0.90;;;21.90;43.60;;;;;;5052967;28;20025;-34
2021/05/20 12:04:30;;;;;;;5.80;0.85;;;22.10;45.10;;;;;;5052128;28;20029;-50
2021/05/20 12:06:56;;;;;;;7.05;0.90;;;22.30;46.70;;;;;;5060923;28;20055;-40
2021/05/20 12:09:22;;;;;;;3.67;0.60;;;22.20;45.00;;;;;;5053264;28;20060;-39
2021/05/20 12:11:48;;;;;;;2.78;0.80;;;22.00;45.90;;;;;;5052205;28;20033;-39
2021/05/20 12:14:28;;;;;;;6.43;0.95;;;22.00;48.20;;;;;;5052598;28;20036;-38
2021/05/20 12:17:06;;;;;;;2.67;0.70;;;21.80;50.80;;;;;;5051317;28;20123;-36
2021/05/20 12:19:34;;;;;;;2.58;0.60;;;21.80;50.60;;;;;;5052005;28;20036;-39
2021/05/20 12:22:05;;;;;;;1.52;0.57;;;21.70;49.70;;;;;;5052655;28;20028;-38
2021/05/20 12:24:33;;;;;;;2.35;0.90;;;21.80;49.00;;;;;;5047378;28;20036;-49
2021/05/20 12:27:20;;;;;;;2.25;1.42;;;21.70;48.70;;;;;;5052608;28;20159;-39
2021/05/20 12:29:49;;;;;;;3.47;0.98;;;21.90;48.80;;;;;;5051505;28;20037;-37
2021/05/20 12:32:40;;;;;;;2.10;0.90;;;22.00;48.60;;;;;;5052265;28;20032;-38
2021/05/20 12:35:18;;;;;;;2.80;1.17;;;21.90;48.80;;;;;;5051147;28;20462;-39
2021/05/20 12:37:51;;;;;;;2.90;0.98;;;21.80;50.20;;;;;;5051661;28;20044;-39
2021/05/20 12:40:29;;;;;;;3.42;1.13;;;21.80;49.50;;;;;;5052300;28;20025;-39
2021/05/20 12:43:01;;;;;;;3.35;1.08;;;21.80;49.00;;;;;;5052148;28;20037;-36
2021/05/20 12:45:28;;;;;;;4.30;1.02;;;21.70;48.70;;;;;;5051468;28;20028;-38
2021/05/20 12:47:54;;;;;;;2.75;1.20;;;21.70;48.80;;;;;;5051564;28;20069;-39
2021/05/20 12:50:34;;;;;;;2.90;1.00;;;21.70;48.80;;;;;;5051716;28;20501;-39
2021/05/20 12:53:01;;;;;;;1.77;1.00;;;21.60;49.00;;;;;;5052094;28;20032;-46
2021/05/20 12:55:38;;;;;;;2.15;0.63;;;21.60;48.30;;;;;;5051807;28;20035;-38
2021/05/20 12:58:06;;;;;;;0.80;0.50;;;21.60;47.50;;;;;;5051718;28;20048;-39
2021/05/20 13:00:59;;;;;;;2.75;0.70;;;21.60;45.50;;;;;;5043675;28;20041;-50
2021/05/20 13:03:38;;;;;;;2.45;0.90;;;21.50;44.60;;;;;;5051129;28;20032;-39